Ujfeherto, Hungary
Current Conditions -  °F | °C
As of 5:45 PM on Friday 24 Oct 2014 (Local Time) from LHDC Reporting Station
Overcast Overcast  
Wind Chill: 36°   Ceiling: 800
Heat Index: 43°   Visibility: 4mi
Dew Point: 43°   Wind: 13mph
Humidity: 100%   Direction: 30°NNE
Pressure: 30.09"   Gusts: NA
Location:  47.8°N, 21.68°E
Report Text: LHDC 241545Z 03011KT 6000 BKN008 OVC013 06/06 Q1019 NOSIG
Loading
Personal Weather Stations






























Interactive Weather Map
Tropical Storm Tracking
New forecast layout! Learn more

10-Day Weather Forecast

Advertisements
Track Severe Weather on mobile